createdAt,value
2019-01-04T00:00:05.572Z,15.70
2019-01-04T00:02:32.493Z,14.50
2019-01-04T00:04:59.440Z,17.40
2019-01-04T00:07:26.365Z,15.87
2019-01-04T00:09:53.349Z,14.03
2019-01-04T00:12:20.326Z,16.00
2019-01-04T00:14:47.327Z,16.50
2019-01-04T00:17:14.250Z,17.87
2019-01-04T00:19:41.121Z,18.80
2019-01-04T00:22:08.068Z,17.50
2019-01-04T00:24:34.955Z,16.27
2019-01-04T00:27:01.889Z,16.87
2019-01-04T00:29:28.804Z,17.70
2019-01-04T00:31:55.733Z,16.63
2019-01-04T00:34:22.665Z,16.60
2019-01-04T00:36:49.622Z,15.80
2019-01-04T00:39:16.501Z,16.10
2019-01-04T00:41:43.414Z,16.87
2019-01-04T00:44:10.337Z,18.00
2019-01-04T00:46:37.255Z,19.67
2019-01-04T00:49:04.190Z,18.50
2019-01-04T00:51:31.108Z,18.80
2019-01-04T00:53:57.979Z,19.60
2019-01-04T00:57:02.351Z,20.87
2019-01-04T01:00:01.350Z,19.40
2019-01-04T01:03:02.694Z,18.63
2019-01-04T01:06:25.986Z,18.10
2019-01-04T01:09:36.520Z,22.00
2019-01-04T01:12:44.091Z,19.50
2019-01-04T01:16:06.641Z,18.13
2019-01-04T01:19:16.932Z,19.37
2019-01-04T01:22:20.443Z,20.37
2019-01-04T01:25:17.282Z,16.77
2019-01-04T01:28:13.059Z,22.13
2019-01-04T01:31:27.321Z,23.50
2019-01-04T01:34:22.262Z,21.93
2019-01-04T01:37:25.612Z,24.70
2019-01-04T01:40:29.358Z,20.03
2019-01-04T01:43:33.150Z,20.60
2019-01-04T01:46:42.695Z,21.40
2019-01-04T01:49:50.334Z,19.73
2019-01-04T01:52:22.189Z,19.10
2019-01-04T01:54:49.103Z,19.30
2019-01-04T01:57:15.989Z,21.87
2019-01-04T01:59:42.896Z,24.17
2019-01-04T02:02:09.770Z,19.77
2019-01-04T02:04:36.721Z,21.00
2019-01-04T02:07:03.605Z,19.50
2019-01-04T02:09:30.501Z,20.17
2019-01-04T02:11:57.495Z,19.47
2019-01-04T02:14:24.400Z,21.07
2019-01-04T02:16:51.339Z,20.10
2019-01-04T02:19:18.286Z,23.27
2019-01-04T02:21:45.167Z,21.70
2019-01-04T02:24:12.087Z,25.50
2019-01-04T02:26:38.968Z,24.37
2019-01-04T02:29:05.906Z,24.90
2019-01-04T02:31:32.771Z,24.10
2019-01-04T02:33:59.732Z,22.20
2019-01-04T02:36:26.609Z,20.43
2019-01-04T02:38:53.548Z,23.37
2019-01-04T02:41:20.433Z,20.53
2019-01-04T02:43:47.339Z,29.53
2019-01-04T02:46:14.216Z,22.47
2019-01-04T02:48:41.156Z,25.00
2019-01-04T02:51:08.033Z,27.57
2019-01-04T02:53:34.950Z,23.13
2019-01-04T02:56:01.826Z,24.30
2019-01-04T02:58:28.762Z,23.73
2019-01-04T03:00:55.653Z,25.07
2019-01-04T03:03:22.521Z,21.43
2019-01-04T03:05:49.432Z,25.47
2019-01-04T03:08:16.315Z,20.43
2019-01-04T03:10:43.226Z,22.13
2019-01-04T03:13:10.095Z,21.03
2019-01-04T03:15:37.003Z,22.03
2019-01-04T03:18:03.886Z,21.53
2019-01-04T03:20:30.789Z,22.30
2019-01-04T03:22:57.690Z,22.10
2019-01-04T03:25:24.587Z,20.17
2019-01-04T03:27:51.473Z,19.13
2019-01-04T03:30:18.385Z,21.30
2019-01-04T03:32:45.280Z,21.60
2019-01-04T03:35:12.198Z,23.30
2019-01-04T03:37:41.852Z,26.00
2019-01-04T03:40:09.275Z,26.13
2019-01-04T03:42:36.151Z,23.57
2019-01-04T03:45:03.775Z,25.30
2019-01-04T03:47:30.657Z,25.60
2019-01-04T03:49:57.602Z,23.00
2019-01-04T03:52:24.479Z,23.13
2019-01-04T03:54:51.394Z,22.77
2019-01-04T03:57:18.274Z,27.17
2019-01-04T03:59:45.182Z,33.50
2019-01-04T04:02:12.064Z,26.77
2019-01-04T04:04:39.035Z,26.43
2019-01-04T04:07:06.035Z,28.30
2019-01-04T04:09:32.978Z,26.70
2019-01-04T04:11:59.896Z,23.60
2019-01-04T04:14:26.780Z,26.33
2019-01-04T04:16:53.709Z,24.60
2019-01-04T04:19:20.639Z,23.60
2019-01-04T04:21:47.600Z,24.20
2019-01-04T04:24:14.499Z,23.73
2019-01-04T04:26:41.421Z,23.20
2019-01-04T04:29:08.348Z,25.37
2019-01-04T04:31:35.291Z,26.30
2019-01-04T04:34:02.236Z,25.80
2019-01-04T04:36:29.168Z,24.50
2019-01-04T04:38:56.068Z,26.23
2019-01-04T04:41:22.982Z,25.20
2019-01-04T04:43:49.889Z,23.47
2019-01-04T04:46:16.811Z,25.93
2019-01-04T04:48:43.719Z,24.43
2019-01-04T04:51:10.653Z,23.23
2019-01-04T04:53:37.558Z,24.60
2019-01-04T04:56:04.452Z,24.50
2019-01-04T04:58:31.359Z,26.30
2019-01-04T05:00:58.291Z,25.27
2019-01-04T05:03:25.204Z,23.23
2019-01-04T05:05:52.135Z,25.40
2019-01-04T05:08:19.012Z,24.37
2019-01-04T05:10:45.952Z,25.40
2019-01-04T05:13:12.859Z,26.30
2019-01-04T05:15:39.884Z,25.37
2019-01-04T05:18:06.794Z,24.03
2019-01-04T05:20:33.702Z,25.43
2019-01-04T05:23:00.586Z,23.27
2019-01-04T05:25:27.498Z,23.57
2019-01-04T05:27:54.373Z,22.97
2019-01-04T05:30:21.251Z,27.47
2019-01-04T05:32:48.163Z,21.07
2019-01-04T05:35:15.080Z,22.70
2019-01-04T05:37:42.009Z,20.13
2019-01-04T05:40:08.940Z,20.63
2019-01-04T05:42:35.868Z,19.63
2019-01-04T05:45:02.994Z,21.27
2019-01-04T05:47:29.919Z,19.80
2019-01-04T05:49:56.915Z,18.30
2019-01-04T05:52:23.851Z,17.80
2019-01-04T05:54:50.765Z,17.40
2019-01-04T05:57:17.744Z,16.70
2019-01-04T05:59:44.730Z,17.53
2019-01-04T06:02:11.685Z,17.33
2019-01-04T06:04:38.565Z,18.43
2019-01-04T06:07:05.513Z,16.93
2019-01-04T06:09:32.439Z,15.50
2019-01-04T06:11:59.448Z,16.50
2019-01-04T06:14:26.337Z,14.40
2019-01-04T06:16:53.257Z,16.80
2019-01-04T06:19:20.171Z,14.93
2019-01-04T06:21:47.099Z,15.80
2019-01-04T06:24:14.082Z,14.87
2019-01-04T06:26:41.018Z,15.90
2019-01-04T06:29:07.931Z,15.60
2019-01-04T06:31:34.854Z,16.30
2019-01-04T06:34:01.880Z,16.87
2019-01-04T06:36:28.830Z,16.37
2019-01-04T06:38:55.720Z,16.20
2019-01-04T06:41:22.605Z,16.27
2019-01-04T06:43:50.021Z,17.23
2019-01-04T06:46:16.921Z,15.50
2019-01-04T06:48:44.092Z,16.43
2019-01-04T06:51:11.001Z,18.10
2019-01-04T06:53:37.928Z,16.43
2019-01-04T06:56:07.031Z,15.00
2019-01-04T06:58:33.967Z,16.37
2019-01-04T07:01:00.891Z,16.90
2019-01-04T07:03:27.811Z,16.43
2019-01-04T07:05:54.701Z,17.47
2019-01-04T07:08:21.643Z,15.90
2019-01-04T07:10:48.597Z,17.03
2019-01-04T07:13:15.634Z,16.43
2019-01-04T07:15:42.518Z,15.67
2019-01-04T07:18:09.441Z,16.10
2019-01-04T07:20:36.355Z,16.37
2019-01-04T07:23:03.301Z,16.97
2019-01-04T07:25:30.190Z,16.27
2019-01-04T07:27:57.112Z,15.93
2019-01-04T07:30:24.013Z,16.00
2019-01-04T07:32:50.940Z,18.00
2019-01-04T07:35:17.811Z,17.50
2019-01-04T07:37:44.737Z,17.90
2019-01-04T07:40:12.357Z,18.00
2019-01-04T07:42:39.377Z,19.40
2019-01-04T07:45:07.697Z,19.00
2019-01-04T07:47:34.780Z,19.80
2019-01-04T07:50:02.236Z,18.87
2019-01-04T07:52:29.167Z,19.77
2019-01-04T07:54:56.104Z,21.47
2019-01-04T07:57:23.085Z,19.67
2019-01-04T07:59:50.219Z,20.00
2019-01-04T08:02:45.911Z,17.70
2019-01-04T08:05:15.548Z,19.93
2019-01-04T08:07:42.448Z,19.30
2019-01-04T08:10:09.391Z,18.97
2019-01-04T08:12:36.289Z,20.20
2019-01-04T08:15:04.569Z,21.80
2019-01-04T08:17:31.477Z,19.77
2019-01-04T08:19:58.407Z,20.13
2019-01-04T08:22:25.296Z,20.80
2019-01-04T08:24:52.230Z,19.47
2019-01-04T08:27:19.144Z,21.37
2019-01-04T08:29:46.061Z,21.10
2019-01-04T08:32:12.958Z,19.17
2019-01-04T08:34:39.896Z,18.67
2019-01-04T08:37:06.795Z,19.13
2019-01-04T08:39:33.715Z,20.00
2019-01-04T08:42:00.615Z,20.50
2019-01-04T08:44:27.551Z,18.20
2019-01-04T08:46:54.445Z,18.60
2019-01-04T08:49:21.434Z,16.60
2019-01-04T08:51:48.334Z,19.13
2019-01-04T08:54:15.275Z,18.37
2019-01-04T08:56:42.169Z,18.33
2019-01-04T08:59:09.121Z,19.10
2019-01-04T09:01:36.022Z,17.60
2019-01-04T09:04:02.952Z,20.07
2019-01-04T09:06:29.913Z,17.17
2019-01-04T09:08:56.817Z,18.67
2019-01-04T09:11:23.748Z,16.50
2019-01-04T09:13:50.798Z,16.23
2019-01-04T09:16:17.723Z,17.03
2019-01-04T09:18:44.681Z,15.03
2019-01-04T09:21:11.691Z,15.67
2019-01-04T09:23:38.584Z,14.00
2019-01-04T09:26:05.502Z,14.93
2019-01-04T09:28:32.426Z,14.30
2019-01-04T09:30:59.373Z,13.80
2019-01-04T09:33:26.309Z,13.57
2019-01-04T09:35:53.242Z,12.40
2019-01-04T09:38:20.126Z,12.53
2019-01-04T09:40:51.251Z,12.90
2019-01-04T09:43:18.198Z,13.30
2019-01-04T09:45:45.143Z,15.17
2019-01-04T09:48:12.031Z,13.93
2019-01-04T09:50:39.021Z,12.57
2019-01-04T09:53:05.970Z,12.83
2019-01-04T09:55:32.897Z,11.80
2019-01-04T09:57:59.790Z,10.30
2019-01-04T10:00:26.752Z,8.33
2019-01-04T10:02:53.739Z,10.10
2019-01-04T10:05:20.698Z,8.50
2019-01-04T10:07:47.656Z,9.13
2019-01-04T10:10:14.607Z,9.13
2019-01-04T10:12:41.534Z,7.37
2019-01-04T10:15:11.301Z,7.73
2019-01-04T10:17:38.240Z,6.30
2019-01-04T10:20:06.145Z,6.87
2019-01-04T10:22:33.064Z,6.93
2019-01-04T10:25:00.325Z,5.93
2019-01-04T10:27:27.267Z,5.17
2019-01-04T10:29:55.617Z,5.23
2019-01-04T10:32:22.546Z,4.83
2019-01-04T10:34:49.489Z,5.23
2019-01-04T10:37:16.493Z,4.27
2019-01-04T10:39:43.452Z,4.77
2019-01-04T10:42:10.389Z,4.17
2019-01-04T10:44:37.313Z,3.80
2019-01-04T10:47:04.245Z,3.17
2019-01-04T10:49:31.260Z,3.43
2019-01-04T10:51:58.294Z,3.70
2019-01-04T10:54:25.188Z,2.80
2019-01-04T10:56:52.135Z,3.37
2019-01-04T10:59:19.051Z,3.43
2019-01-04T11:01:45.984Z,3.10
2019-01-04T11:04:12.869Z,2.70
2019-01-04T11:06:39.857Z,2.90
2019-01-04T11:09:08.549Z,2.33
2019-01-04T11:11:35.512Z,3.17
2019-01-04T11:14:02.420Z,2.63
2019-01-04T11:16:29.355Z,2.73
2019-01-04T11:18:56.270Z,3.27
2019-01-04T11:21:23.437Z,3.13
2019-01-04T11:24:14.662Z,3.43
2019-01-04T11:27:00.305Z,3.60
2019-01-04T11:30:00.455Z,3.87
2019-01-04T11:33:19.889Z,3.50
2019-01-04T11:36:26.469Z,3.30
2019-01-04T11:39:35.165Z,3.83
2019-01-04T11:42:23.314Z,3.83
2019-01-04T11:45:17.997Z,4.10
2019-01-04T11:48:34.103Z,3.80
2019-01-04T11:51:28.708Z,4.63
2019-01-04T11:53:55.725Z,5.43
2019-01-04T11:56:22.645Z,4.87
2019-01-04T11:58:49.629Z,4.27
2019-01-04T12:01:16.558Z,4.07
2019-01-04T12:03:54.829Z,4.37
2019-01-04T12:06:21.725Z,4.40
2019-01-04T12:08:48.671Z,4.70
2019-01-04T12:11:15.568Z,4.97
2019-01-04T12:13:42.498Z,5.93
2019-01-04T12:16:09.396Z,5.70
2019-01-04T12:18:36.368Z,7.00
2019-01-04T12:21:03.293Z,5.53
2019-01-04T12:23:30.445Z,5.80
2019-01-04T12:25:57.403Z,6.13
2019-01-04T12:28:24.337Z,6.57
2019-01-04T12:30:51.246Z,5.83
2019-01-04T12:33:18.254Z,5.73
2019-01-04T12:35:45.188Z,5.87
2019-01-04T12:38:12.145Z,6.60
2019-01-04T12:40:39.102Z,7.23
2019-01-04T12:43:06.058Z,6.17
2019-01-04T12:45:32.992Z,6.60
2019-01-04T12:48:00.034Z,7.70
2019-01-04T12:50:26.955Z,8.40
2019-01-04T12:52:53.928Z,8.07
2019-01-04T12:55:20.835Z,8.13
2019-01-04T12:57:47.769Z,7.60
2019-01-04T13:00:14.670Z,8.00
2019-01-04T13:02:41.658Z,8.30
2019-01-04T13:05:08.542Z,9.00
2019-01-04T13:07:35.570Z,10.03
2019-01-04T13:10:02.714Z,9.80
2019-01-04T13:12:29.624Z,9.17
2019-01-04T13:14:56.627Z,9.83
2019-01-04T13:17:23.525Z,9.80
2019-01-04T13:19:50.727Z,11.67
2019-01-04T13:22:17.649Z,10.30
2019-01-04T13:24:44.600Z,9.23
2019-01-04T13:27:11.532Z,10.17
2019-01-04T13:29:38.466Z,8.50
2019-01-04T13:32:05.393Z,9.80
2019-01-04T13:34:32.333Z,10.33
2019-01-04T13:36:59.257Z,13.07
2019-01-04T13:39:26.297Z,9.67
2019-01-04T13:41:53.270Z,9.57
2019-01-04T13:44:20.246Z,10.43
2019-01-04T13:46:47.151Z,9.53
2019-01-04T13:49:14.152Z,10.20
2019-01-04T13:51:41.127Z,10.17
2019-01-04T13:54:08.082Z,10.43
2019-01-04T13:56:35.099Z,12.20
2019-01-04T13:59:02.045Z,10.10
2019-01-04T14:01:29.051Z,9.33
2019-01-04T14:03:55.970Z,9.33
2019-01-04T14:06:22.872Z,11.53
2019-01-04T14:08:49.825Z,10.17
2019-01-04T14:11:16.731Z,9.93
2019-01-04T14:13:43.675Z,10.17
2019-01-04T14:16:10.641Z,10.40
2019-01-04T14:18:37.577Z,10.83
2019-01-04T14:21:04.524Z,9.60
2019-01-04T14:23:31.419Z,9.40
2019-01-04T14:25:58.580Z,9.47
2019-01-04T14:28:25.492Z,10.67
2019-01-04T14:30:52.432Z,10.63
2019-01-04T14:33:19.316Z,8.77
2019-01-04T14:35:46.375Z,10.70
2019-01-04T14:38:13.321Z,11.23
2019-01-04T14:40:40.239Z,9.83
2019-01-04T14:43:07.196Z,11.07
2019-01-04T14:45:34.139Z,10.80
2019-01-04T14:48:01.060Z,10.80
2019-01-04T14:50:28.205Z,11.07
2019-01-04T14:52:55.101Z,11.17
2019-01-04T14:55:22.025Z,10.37
2019-01-04T14:57:51.126Z,10.60
2019-01-04T15:00:18.197Z,10.33
2019-01-04T15:02:45.346Z,10.57
2019-01-04T15:05:12.279Z,11.03
2019-01-04T15:07:39.404Z,10.67
2019-01-04T15:10:07.925Z,10.00
2019-01-04T15:12:34.859Z,11.43
2019-01-04T15:15:01.896Z,12.10
2019-01-04T15:17:28.880Z,12.30
2019-01-04T15:19:56.175Z,10.80
2019-01-04T15:22:23.113Z,11.93
2019-01-04T15:24:50.141Z,11.93
2019-01-04T15:27:17.059Z,12.00
2019-01-04T15:29:44.028Z,10.83
2019-01-04T15:32:10.989Z,11.80
2019-01-04T15:34:37.904Z,11.80
2019-01-04T15:37:04.956Z,10.73
2019-01-04T15:39:31.863Z,10.87
2019-01-04T15:41:58.773Z,10.03
2019-01-04T15:44:25.695Z,11.60
2019-01-04T15:46:52.691Z,12.47
2019-01-04T15:49:19.725Z,10.80
2019-01-04T15:51:46.653Z,12.83
2019-01-04T15:54:13.564Z,11.83
2019-01-04T15:56:40.651Z,12.33
2019-01-04T15:59:07.607Z,12.27
2019-01-04T16:01:34.526Z,12.77
2019-01-04T16:04:01.499Z,12.27
2019-01-04T16:06:28.442Z,12.30
2019-01-04T16:08:55.373Z,11.53
2019-01-04T16:11:22.298Z,13.33
2019-01-04T16:13:49.220Z,12.43
2019-01-04T16:16:16.162Z,11.97
2019-01-04T16:18:43.069Z,12.40
2019-01-04T16:21:10.044Z,12.00
2019-01-04T16:23:36.991Z,13.07
2019-01-04T16:26:03.937Z,10.77
2019-01-04T16:28:30.914Z,12.97
2019-01-04T16:30:57.847Z,12.87
2019-01-04T16:33:24.836Z,13.17
2019-01-04T16:35:51.936Z,13.50
2019-01-04T16:38:18.867Z,13.30
2019-01-04T16:40:45.780Z,14.73
2019-01-04T16:43:12.721Z,13.90
2019-01-04T16:45:40.716Z,15.03
2019-01-04T16:48:07.635Z,14.23
2019-01-04T16:50:34.548Z,13.47
2019-01-04T16:53:01.482Z,12.87
2019-01-04T16:55:28.526Z,13.37
2019-01-04T16:57:55.645Z,14.30
2019-01-04T17:00:22.545Z,15.70
2019-01-04T17:02:49.523Z,14.40
2019-01-04T17:05:16.635Z,15.93
2019-01-04T17:07:43.585Z,13.80
2019-01-04T17:10:10.489Z,13.80
2019-01-04T17:12:37.410Z,15.90
2019-01-04T17:15:04.634Z,13.37
2019-01-04T17:17:31.565Z,13.00
2019-01-04T17:19:58.482Z,14.40
2019-01-04T17:22:25.442Z,15.10
2019-01-04T17:24:52.331Z,13.60
2019-01-04T17:27:19.276Z,14.10
2019-01-04T17:29:46.201Z,15.33
2019-01-04T17:32:13.153Z,15.30
2019-01-04T17:34:40.054Z,13.90
2019-01-04T17:37:06.993Z,14.80
2019-01-04T17:39:33.903Z,13.90
2019-01-04T17:42:00.831Z,15.20
2019-01-04T17:44:27.779Z,16.43
2019-01-04T17:46:54.673Z,14.77
2019-01-04T17:49:21.630Z,14.10
2019-01-04T17:51:48.649Z,14.40
2019-01-04T17:54:15.750Z,15.20
2019-01-04T17:56:42.646Z,14.53
2019-01-04T17:59:09.585Z,14.23
2019-01-04T18:01:36.527Z,15.37
2019-01-04T18:04:03.560Z,14.20
2019-01-04T18:06:30.484Z,15.20
2019-01-04T18:08:57.443Z,15.17
2019-01-04T18:11:24.367Z,15.40
2019-01-04T18:13:51.284Z,16.07
2019-01-04T18:16:18.193Z,16.47
2019-01-04T18:18:45.212Z,14.67
2019-01-04T18:21:12.139Z,17.13
2019-01-04T18:23:39.086Z,15.53
2019-01-04T18:26:06.073Z,15.37
2019-01-04T18:28:33.358Z,15.93
2019-01-04T18:31:00.288Z,16.30
2019-01-04T18:33:27.409Z,15.40
2019-01-04T18:35:54.381Z,16.20
2019-01-04T18:38:21.328Z,16.70
2019-01-04T18:40:48.347Z,16.83
2019-01-04T18:43:15.342Z,16.20
2019-01-04T18:45:42.251Z,15.80
2019-01-04T18:48:09.185Z,15.43
2019-01-04T18:50:36.429Z,15.37
2019-01-04T18:53:03.431Z,16.70
2019-01-04T18:55:30.326Z,15.40
2019-01-04T18:57:57.389Z,16.17
2019-01-04T19:00:25.754Z,15.23
2019-01-04T19:02:52.685Z,15.60
2019-01-04T19:05:19.607Z,14.90
2019-01-04T19:07:46.623Z,14.57
2019-01-04T19:10:13.583Z,16.07
2019-01-04T19:12:40.508Z,14.70
2019-01-04T19:15:08.249Z,14.10
2019-01-04T19:17:35.184Z,14.93
2019-01-04T19:20:02.732Z,15.53
2019-01-04T19:22:29.654Z,15.47
2019-01-04T19:24:56.615Z,15.67
2019-01-04T19:27:23.536Z,15.03
2019-01-04T19:29:50.494Z,17.30
2019-01-04T19:32:17.504Z,15.37
2019-01-04T19:34:44.472Z,14.13
2019-01-04T19:37:11.418Z,16.60
2019-01-04T19:39:38.362Z,16.53
2019-01-04T19:42:05.304Z,16.30
2019-01-04T19:44:32.278Z,16.43
2019-01-04T19:46:59.237Z,15.73
2019-01-04T19:49:26.298Z,14.47
2019-01-04T19:51:53.293Z,16.77
2019-01-04T19:54:20.251Z,14.67
2019-01-04T19:56:47.164Z,16.07
2019-01-04T19:59:14.156Z,16.07
2019-01-04T20:01:41.075Z,13.93
2019-01-04T20:04:08.036Z,16.37
2019-01-04T20:07:36.283Z,15.70
2019-01-04T20:11:15.036Z,15.47
2019-01-04T20:14:48.467Z,13.30
2019-01-04T20:17:43.726Z,13.87
2019-01-04T20:20:42.260Z,13.80
2019-01-04T20:23:27.463Z,14.33
2019-01-04T20:26:28.774Z,13.57
2019-01-04T20:29:25.961Z,14.37
2019-01-04T20:32:16.925Z,13.90
2019-01-04T20:35:02.153Z,13.90
2019-01-04T20:37:54.413Z,13.27
2019-01-04T20:40:39.605Z,13.80
2019-01-04T20:43:38.491Z,13.60
2019-01-04T20:46:25.072Z,14.37
2019-01-04T20:49:17.484Z,11.63
2019-01-04T20:52:03.440Z,12.87
2019-01-04T20:54:50.038Z,11.70
2019-01-04T20:57:36.564Z,12.33
2019-01-04T21:00:41.776Z,13.53
2019-01-04T21:03:33.947Z,12.13
2019-01-04T21:06:19.228Z,12.00
2019-01-04T21:09:04.795Z,11.27
2019-01-04T21:11:50.279Z,12.30
2019-01-04T21:14:35.502Z,11.50
2019-01-04T21:17:36.882Z,11.20
2019-01-04T21:20:26.751Z,11.60
2019-01-04T21:23:12.407Z,11.67
2019-01-04T21:25:59.021Z,12.87
2019-01-04T21:29:00.697Z,12.17
2019-01-04T21:31:53.339Z,10.47
2019-01-04T21:34:42.882Z,9.97
2019-01-04T21:37:28.034Z,11.60
2019-01-04T21:40:10.544Z,13.00
2019-01-04T21:43:14.034Z,12.27
2019-01-04T21:45:59.453Z,12.10
2019-01-04T21:48:41.109Z,13.93
2019-01-04T21:51:27.703Z,13.03
2019-01-04T21:54:08.266Z,12.97
2019-01-04T21:56:55.077Z,13.47
2019-01-04T21:59:40.045Z,10.97
2019-01-04T22:02:32.448Z,12.53
2019-01-04T22:05:22.219Z,12.83
2019-01-04T22:08:17.786Z,13.47
2019-01-04T22:11:03.088Z,13.10
2019-01-04T22:13:48.028Z,13.90
2019-01-04T22:16:33.103Z,12.40
2019-01-04T22:19:23.935Z,12.07
2019-01-04T22:22:10.502Z,12.50
2019-01-04T22:25:02.949Z,11.57
2019-01-04T22:27:48.219Z,10.80
2019-01-04T22:30:40.458Z,10.73
2019-01-04T22:33:22.431Z,10.93
2019-01-04T22:36:11.873Z,10.80
2019-01-04T22:38:57.210Z,12.70
2019-01-04T22:41:40.887Z,13.60
2019-01-04T22:44:30.739Z,12.43
2019-01-04T22:47:22.529Z,11.80
2019-01-04T22:50:06.076Z,10.10
2019-01-04T22:52:55.446Z,10.57
2019-01-04T22:55:41.974Z,11.07
2019-01-04T22:58:20.419Z,10.50
2019-01-04T23:01:12.954Z,11.47
2019-01-04T23:03:58.232Z,9.17
2019-01-04T23:06:43.238Z,9.60
2019-01-04T23:09:38.382Z,9.97
2019-01-04T23:12:23.589Z,9.57
2019-01-04T23:15:19.886Z,10.10
2019-01-04T23:18:17.009Z,8.20
2019-01-04T23:21:04.020Z,8.40
2019-01-04T23:23:52.848Z,8.50
2019-01-04T23:26:51.087Z,9.27
2019-01-04T23:29:40.672Z,9.80
2019-01-04T23:32:25.899Z,9.83
2019-01-04T23:35:10.888Z,8.30
2019-01-04T23:37:57.452Z,7.93
2019-01-04T23:40:42.552Z,9.07
2019-01-04T23:43:33.236Z,9.07
2019-01-04T23:46:18.358Z,9.50
2019-01-04T23:49:04.296Z,8.80
2019-01-04T23:52:03.197Z,9.50
2019-01-04T23:55:07.698Z,9.90
2019-01-04T23:58:04.149Z,7.93
